Main page
METAR-TAF:

METAR-TAF

Airports :

Santa Bernardina International Airport

Durazno, Uruguay

latitude: 33-21S, longitude: 056-30W, elevation: 93 m

Current weather observation

The report was made 3 hours and 5 minutes ago, at 23:00 UTC
Wind 6 kt from the North/Northeast
Temperature 18°C
Humidity 73%
Pressure 1014 hPa
Visibility 10 km or more
no clouds below 1500 m and no cumulonimbus

METAR: SUDU 192300Z 02006KT CAVOK 18/13 Q1014

Time: 23:05 (02:05 UTC)

Forecast

The report was made 2 hours and 35 minutes ago, at 23:30 UTC
Forecast valid from 20 at 00 UTC to 20 at 24 UTC
Wind 5 kt from the North/Northwest
Visibility 10 km or more
no clouds below 1500 m and no cumulonimbus
Probability 40% :
Temporary
from 20 at 06 UTC to 20 at 11 UTC
Visibility: 3000 m
mist,

TAF: SUDU 192330Z 2000/2024 34005KT CAVOK TX27/2018Z TN13/2010Z PROB40 TEMPO 2006/2011 3000 BR NSC

Weather observations and forecasts of more than 4000 airports (METAR and TAF reports).

The available stations are represented by yellow and red dots on the map.

Hover mouse over dot to see the name of the station.

Then click to see weather observations and forecasts.

To change the map : click on the green buttons with a black cross to zoom in, on the green button with a dash to zoom out, or on the green arrows for adjacent maps.


METAR-TAF: